Time;durP1;ratioP1;P1;durP2;ratioP2;P2;SDS_P1;SDS_P2;PMS_P1;PMS_P2;Temp;Humidity;BMP_temperature;BMP_pressure;BME280_temperature;BME280_humidity;BME280_pressure;Samples;Min_cycle;Max_cycle;Signal;HPM_P1;HPM_P2
2021/10/28 00:12:52;;;;;;;10.27;6.40;;;9.20;99.90;;;;;;5048866;28;20309;-69
2021/10/28 00:15:27;;;;;;;9.77;6.27;;;9.30;99.90;;;;;;5050447;28;20302;-69
2021/10/28 00:18:06;;;;;;;11.97;6.90;;;9.40;99.90;;;;;;5093590;27;20206;-70
2021/10/28 00:20:36;;;;;;;9.67;6.33;;;9.40;99.90;;;;;;5126602;27;20630;-70
2021/10/28 00:23:04;;;;;;;12.17;7.37;;;9.40;99.90;;;;;;5122736;27;20204;-69
2021/10/28 00:25:32;;;;;;;10.37;6.13;;;9.30;99.90;;;;;;5130511;27;20260;-70
2021/10/28 00:27:59;;;;;;;11.37;6.73;;;9.30;99.90;;;;;;5128855;27;20229;-70
2021/10/28 00:30:28;;;;;;;9.77;6.43;;;9.30;99.90;;;;;;5123910;27;20254;-69
2021/10/28 00:32:55;;;;;;;11.73;7.07;;;9.20;99.90;;;;;;5128758;27;20224;-69
2021/10/28 00:35:23;;;;;;;11.20;6.70;;;9.20;99.90;;;;;;5126749;27;20272;-70
2021/10/28 00:37:52;;;;;;;8.87;5.70;;;9.10;99.90;;;;;;5128088;27;20257;-70
2021/10/28 00:40:19;;;;;;;9.93;6.60;;;8.30;99.90;;;;;;5118882;28;20596;-69
2021/10/28 00:42:46;;;;;;;11.73;7.37;;;8.10;99.90;;;;;;5123453;28;20231;-69
2021/10/28 00:45:13;;;;;;;11.13;6.97;;;8.30;99.90;;;;;;5117476;27;20192;-69
2021/10/28 00:47:41;;;;;;;13.23;7.37;;;8.40;99.90;;;;;;5127706;28;20196;-69
2021/10/28 00:50:10;;;;;;;10.57;7.53;;;8.40;99.90;;;;;;5134574;27;20212;-69
2021/10/28 00:52:37;;;;;;;9.67;7.10;;;8.40;99.90;;;;;;5119144;27;20621;-69
2021/10/28 00:55:07;;;;;;;9.43;6.90;;;8.30;99.90;;;;;;5127952;27;20201;-69
2021/10/28 00:57:34;;;;;;;13.07;7.50;;;8.30;99.90;;;;;;5127789;27;20197;-69
2021/10/28 01:00:04;;;;;;;12.17;7.40;;;8.50;99.90;;;;;;5124515;27;20280;-69
2021/10/28 01:02:31;;;;;;;13.30;7.87;;;8.70;99.90;;;;;;5121988;28;20200;-69
2021/10/28 01:04:58;;;;;;;12.30;7.17;;;8.80;99.90;;;;;;5119369;28;20250;-68
2021/10/28 01:07:25;;;;;;;11.00;7.40;;;8.90;99.90;;;;;;5121991;28;20203;-68
2021/10/28 01:09:52;;;;;;;10.87;6.80;;;9.00;99.90;;;;;;5114723;28;20197;-69
2021/10/28 01:12:21;;;;;;;10.17;6.73;;;9.00;99.90;;;;;;5121516;28;20225;-69
2021/10/28 01:14:48;;;;;;;10.23;6.40;;;8.80;99.90;;;;;;5118943;27;20201;-69
2021/10/28 01:17:15;;;;;;;12.70;7.30;;;8.90;99.90;;;;;;5119402;27;20707;-69
2021/10/28 01:19:43;;;;;;;10.10;6.93;;;8.90;99.90;;;;;;5131293;27;20597;-78
2021/10/28 01:22:12;;;;;;;10.23;6.93;;;8.70;99.90;;;;;;5129932;27;20216;-78
2021/10/28 01:24:39;;;;;;;10.63;7.13;;;8.50;99.90;;;;;;5120313;27;20193;-78
2021/10/28 01:27:08;;;;;;;11.07;7.20;;;8.40;99.90;;;;;;5127403;27;20200;-78
2021/10/28 01:29:35;;;;;;;8.37;6.27;;;8.30;99.90;;;;;;5131499;27;20200;-78
2021/10/28 01:32:03;;;;;;;12.03;6.90;;;8.30;99.90;;;;;;5140013;27;20259;-78
2021/10/28 01:34:30;;;;;;;10.30;6.97;;;8.10;99.90;;;;;;5127103;27;20235;-78
2021/10/28 01:36:59;;;;;;;11.73;7.27;;;8.00;99.90;;;;;;5125291;27;20836;-78
2021/10/28 01:39:28;;;;;;;10.03;7.00;;;7.90;99.90;;;;;;5134438;27;20201;-78
2021/10/28 01:41:55;;;;;;;13.37;7.00;;;7.90;99.90;;;;;;5117361;27;20643;-78
2021/10/28 01:44:23;;;;;;;11.20;7.53;;;7.90;99.90;;;;;;5129652;27;20726;-78
2021/10/28 01:46:52;;;;;;;12.97;7.53;;;8.00;99.90;;;;;;5125413;27;20205;-78
2021/10/28 01:49:23;;;;;;;10.00;6.77;;;7.90;99.90;;;;;;5133242;27;20565;-78
2021/10/28 01:51:53;;;;;;;11.77;7.47;;;8.10;99.90;;;;;;5120842;27;20325;-78
2021/10/28 01:54:21;;;;;;;12.37;7.00;;;8.00;99.90;;;;;;5129313;27;20239;-78
2021/10/28 01:56:51;;;;;;;15.63;10.27;;;8.10;99.90;;;;;;5131725;27;20201;-78
2021/10/28 01:59:18;;;;;;;14.57;10.23;;;8.40;99.90;;;;;;5127443;27;20546;-78
2021/10/28 02:01:45;;;;;;;13.87;9.13;;;8.40;99.90;;;;;;5128858;27;20193;-78
2021/10/28 02:04:13;;;;;;;14.67;10.10;;;8.20;99.90;;;;;;5118081;27;20250;-78
2021/10/28 02:06:40;;;;;;;15.13;9.57;;;8.20;99.90;;;;;;5127138;27;20269;-78
2021/10/28 02:09:07;;;;;;;11.80;7.67;;;8.00;99.90;;;;;;5117118;27;20236;-78
2021/10/28 02:11:35;;;;;;;10.70;7.33;;;8.00;99.90;;;;;;5120764;27;20224;-78
2021/10/28 02:14:03;;;;;;;12.27;7.70;;;7.70;99.90;;;;;;5127661;27;20414;-78
2021/10/28 02:16:32;;;;;;;11.50;7.97;;;7.80;99.90;;;;;;5128092;27;20280;-78
2021/10/28 02:18:59;;;;;;;13.30;8.27;;;7.90;99.90;;;;;;5121429;27;20227;-78
2021/10/28 02:21:26;;;;;;;14.43;7.97;;;7.90;99.90;;;;;;5130951;27;20199;-78
2021/10/28 02:23:53;;;;;;;12.50;7.63;;;7.90;99.90;;;;;;5130624;27;20216;-78
2021/10/28 02:26:21;;;;;;;10.93;7.57;;;7.90;99.90;;;;;;5121450;27;20240;-78
2021/10/28 02:28:48;;;;;;;11.10;7.43;;;7.90;99.90;;;;;;5124457;27;20538;-78
2021/10/28 02:31:16;;;;;;;11.50;7.50;;;7.90;99.90;;;;;;5115450;27;20213;-78
2021/10/28 02:33:43;;;;;;;11.67;8.10;;;7.70;99.90;;;;;;5120336;27;20250;-78
2021/10/28 02:36:10;;;;;;;12.63;7.73;;;7.80;99.90;;;;;;5121569;27;20715;-78
2021/10/28 02:38:38;;;;;;;12.83;8.37;;;7.90;99.90;;;;;;5127290;27;20245;-78
2021/10/28 02:41:05;;;;;;;12.63;7.77;;;8.00;99.90;;;;;;5127398;27;20258;-78
2021/10/28 02:43:32;;;;;;;12.83;8.10;;;7.80;99.90;;;;;;5116813;27;20236;-78
2021/10/28 02:45:59;;;;;;;11.07;7.23;;;7.80;99.90;;;;;;5122914;27;20237;-78
2021/10/28 02:48:28;;;;;;;12.60;8.30;;;7.80;99.90;;;;;;5131564;27;20208;-78
2021/10/28 02:50:55;;;;;;;12.13;8.00;;;8.00;99.90;;;;;;5128060;27;20438;-78
2021/10/28 02:53:22;;;;;;;10.90;6.97;;;7.90;99.90;;;;;;5121893;27;20260;-78
2021/10/28 02:55:49;;;;;;;11.67;7.87;;;7.80;99.90;;;;;;5130988;27;20208;-78
2021/10/28 02:58:17;;;;;;;13.17;8.07;;;7.90;99.90;;;;;;5132434;27;20223;-78
2021/10/28 03:00:44;;;;;;;10.03;7.33;;;7.90;99.90;;;;;;5130508;27;20852;-78
2021/10/28 03:03:11;;;;;;;11.57;7.80;;;7.90;99.90;;;;;;5129678;27;20200;-78
2021/10/28 03:05:40;;;;;;;11.50;7.87;;;7.80;99.90;;;;;;5130950;27;20211;-78
2021/10/28 03:08:07;;;;;;;12.03;8.50;;;7.70;99.90;;;;;;5123869;27;20674;-78
2021/10/28 03:10:34;;;;;;;13.00;8.93;;;7.80;99.90;;;;;;5125341;27;20204;-78
2021/10/28 03:13:01;;;;;;;13.73;8.80;;;7.90;99.90;;;;;;5117917;27;20252;-78
2021/10/28 03:15:34;;;;;;;13.57;9.13;;;7.90;99.90;;;;;;5116499;27;20650;-79
2021/10/28 03:26:27;;;;;;;16.27;10.50;;;7.80;99.90;;;;;;5088930;27;20321;-78
2021/10/28 03:28:54;;;;;;;15.57;10.23;;;7.90;99.90;;;;;;5125928;27;20606;-78
2021/10/28 03:31:21;;;;;;;13.93;8.73;;;7.60;99.90;;;;;;5130799;27;20261;-78
2021/10/28 03:33:49;;;;;;;14.00;9.33;;;7.40;99.90;;;;;;5131662;27;20269;-78
2021/10/28 03:36:27;;;;;;;14.47;9.10;;;7.40;99.90;;;;;;5130313;27;20646;-78
2021/10/28 03:39:04;;;;;;;13.80;8.90;;;7.30;99.90;;;;;;5124898;27;20200;-78
2021/10/28 03:47:29;;;;;;;18.70;12.60;;;7.60;99.90;;;;;;5125542;27;20662;-78
2021/10/28 04:01:29;;;;;;;14.03;9.33;;;7.20;99.90;;;;;;5095900;27;20201;-78
2021/10/28 04:31:13;;;;;;;14.50;9.43;;;8.00;99.90;;;;;;5125819;27;20247;-68
2021/10/28 04:33:42;;;;;;;14.87;9.50;;;8.00;99.90;;;;;;5125376;28;20630;-75
2021/10/28 04:36:09;;;;;;;15.80;9.97;;;8.10;99.90;;;;;;5124105;27;20196;-75
2021/10/28 04:38:36;;;;;;;15.27;9.27;;;8.10;99.90;;;;;;5129478;28;20205;-75
2021/10/28 04:41:05;;;;;;;16.43;9.93;;;8.00;99.90;;;;;;5122306;27;20564;-75
2021/10/28 04:43:32;;;;;;;14.23;9.40;;;8.10;99.90;;;;;;5117950;27;20656;-75
2021/10/28 04:45:59;;;;;;;14.40;9.53;;;8.20;99.90;;;;;;5120243;28;20208;-75
2021/10/28 04:48:26;;;;;;;18.23;11.07;;;8.20;99.90;;;;;;5115872;27;20205;-75
2021/10/28 04:50:53;;;;;;;46.87;33.87;;;8.70;99.90;;;;;;5118528;28;20196;-75
2021/10/28 04:53:20;;;;;;;18.33;12.00;;;8.60;99.90;;;;;;5119539;27;20635;-75
2021/10/28 04:55:47;;;;;;;15.73;9.60;;;8.60;99.90;;;;;;5120661;27;20639;-75
2021/10/28 04:58:15;;;;;;;14.97;8.60;;;8.70;99.90;;;;;;5119225;27;20571;-75
2021/10/28 05:00:42;;;;;;;14.00;9.17;;;8.70;99.90;;;;;;5122508;27;20196;-75
2021/10/28 05:03:10;;;;;;;13.07;9.63;;;8.80;99.90;;;;;;5122690;27;20204;-75
2021/10/28 05:05:37;;;;;;;15.40;10.90;;;8.80;99.90;;;;;;5119248;27;20196;-74
2021/10/28 05:08:05;;;;;;;16.97;9.93;;;9.20;99.90;;;;;;5117138;27;20277;-74
2021/10/28 05:10:33;;;;;;;15.93;10.13;;;8.90;99.90;;;;;;5115657;27;20431;-75
2021/10/28 05:13:00;;;;;;;14.63;9.23;;;9.10;99.90;;;;;;5127492;27;20616;-75
2021/10/28 05:15:29;;;;;;;16.17;9.07;;;9.20;99.90;;;;;;5117912;27;20204;-74
2021/10/28 05:17:56;;;;;;;13.97;9.03;;;8.90;99.90;;;;;;5124631;27;20200;-75
2021/10/28 05:20:23;;;;;;;14.40;9.03;;;8.90;99.90;;;;;;5125368;27;20237;-75
2021/10/28 05:22:50;;;;;;;13.07;9.23;;;8.90;99.90;;;;;;5122911;27;20343;-74
2021/10/28 05:25:17;;;;;;;12.87;8.80;;;8.90;99.90;;;;;;5121246;27;20605;-75
2021/10/28 05:27:44;;;;;;;13.27;9.10;;;8.90;99.90;;;;;;5126893;27;20611;-69
2021/10/28 05:30:12;;;;;;;17.07;11.87;;;8.90;99.90;;;;;;5129790;27;20212;-77
2021/10/28 05:32:41;;;;;;;13.53;8.20;;;8.80;99.90;;;;;;5134085;27;20224;-69
2021/10/28 05:35:08;;;;;;;17.80;12.20;;;8.60;99.90;;;;;;5129292;27;20657;-77
2021/10/28 05:37:35;;;;;;;15.87;10.73;;;8.70;99.90;;;;;;5134986;27;20249;-78
2021/10/28 05:40:03;;;;;;;15.70;10.97;;;8.70;99.90;;;;;;5118304;27;20223;-69
2021/10/28 05:42:30;;;;;;;13.63;8.77;;;8.70;99.90;;;;;;5122235;27;20204;-69
2021/10/28 05:44:58;;;;;;;12.07;8.60;;;8.80;99.90;;;;;;5119108;27;20606;-68
2021/10/28 05:47:25;;;;;;;12.97;8.40;;;8.70;99.90;;;;;;5122991;27;20196;-68
2021/10/28 05:49:54;;;;;;;12.27;7.63;;;8.70;99.90;;;;;;5133940;27;20249;-74
2021/10/28 05:52:21;;;;;;;11.57;7.90;;;8.60;99.90;;;;;;5123444;27;20311;-75
2021/10/28 05:54:48;;;;;;;12.73;8.10;;;8.80;99.90;;;;;;5114185;27;20269;-69
2021/10/28 05:57:15;;;;;;;12.70;8.30;;;8.70;99.90;;;;;;5115905;27;20208;-68
2021/10/28 05:59:42;;;;;;;11.73;7.67;;;8.70;99.90;;;;;;5127021;27;20197;-69
2021/10/28 06:02:09;;;;;;;10.60;7.67;;;8.60;99.90;;;;;;5134738;27;20204;-69
2021/10/28 06:04:36;;;;;;;12.57;7.53;;;8.50;99.90;;;;;;5118413;27;20242;-69
2021/10/28 06:07:05;;;;;;;10.93;7.60;;;8.40;99.90;;;;;;5134371;27;20205;-69
2021/10/28 06:09:32;;;;;;;11.27;7.77;;;8.30;99.90;;;;;;5134498;27;20650;-69
2021/10/28 06:11:59;;;;;;;13.17;8.43;;;8.40;99.90;;;;;;5130938;27;20196;-69
2021/10/28 06:14:27;;;;;;;14.80;9.20;;;8.30;99.90;;;;;;5122522;27;20323;-69
2021/10/28 06:16:58;;;;;;;11.97;8.23;;;8.20;99.90;;;;;;5121572;27;20658;-69
2021/10/28 06:19:25;;;;;;;13.10;9.40;;;8.20;99.90;;;;;;5120614;27;20262;-69
2021/10/28 06:21:52;;;;;;;15.00;9.10;;;8.30;99.90;;;;;;5119003;27;20699;-69
2021/10/28 06:24:21;;;;;;;13.13;8.93;;;8.40;99.90;;;;;;5127644;27;20676;-69
2021/10/28 06:26:48;;;;;;;16.23;10.10;;;8.30;99.90;;;;;;5121299;27;20196;-69
2021/10/28 06:29:15;;;;;;;14.10;9.50;;;8.40;99.90;;;;;;5130953;27;20192;-69
2021/10/28 06:31:44;;;;;;;13.87;8.60;;;8.40;99.90;;;;;;5129227;27;20253;-69
2021/10/28 06:34:18;;;;;;;14.20;9.17;;;8.30;99.90;;;;;;5132657;27;20259;-69
2021/10/28 06:36:45;;;;;;;15.13;10.00;;;8.30;99.90;;;;;;5118220;27;20200;-69
2021/10/28 06:39:12;;;;;;;13.43;8.83;;;8.20;99.90;;;;;;5123637;27;20260;-69
2021/10/28 06:41:40;;;;;;;17.97;9.90;;;8.30;99.90;;;;;;5133161;27;20201;-69
2021/10/28 06:44:08;;;;;;;14.70;9.63;;;8.30;99.90;;;;;;5132413;27;20189;-69
2021/10/28 06:46:35;;;;;;;15.67;9.90;;;8.40;99.90;;;;;;5127012;27;20232;-69
2021/10/28 06:49:04;;;;;;;15.13;9.73;;;8.30;99.90;;;;;;5128024;27;20231;-69
2021/10/28 06:51:36;;;;;;;15.43;9.93;;;8.40;99.90;;;;;;5132935;27;20637;-69
2021/10/28 06:54:06;;;;;;;15.60;9.70;;;8.50;99.90;;;;;;5133279;27;20755;-69
2021/10/28 07:02:19;;;;;;;11.57;7.63;;;8.60;99.90;;;;;;5118357;27;20249;-69
2021/10/28 07:04:47;;;;;;;12.63;8.60;;;8.60;99.90;;;;;;5120133;27;20557;-69
2021/10/28 07:07:14;;;;;;;13.57;8.27;;;8.60;99.90;;;;;;5120608;27;20217;-69
2021/10/28 07:09:43;;;;;;;13.63;8.23;;;8.60;99.90;;;;;;5120511;27;20208;-69
2021/10/28 07:12:18;;;;;;;13.63;8.40;;;8.80;99.90;;;;;;5114801;27;20254;-69
2021/10/28 07:14:50;;;;;;;12.83;8.40;;;8.80;99.90;;;;;;5124467;27;20220;-69
2021/10/28 07:17:27;;;;;;;14.47;8.43;;;8.80;99.90;;;;;;5123308;27;20615;-69
2021/10/28 07:20:07;;;;;;;12.93;8.50;;;8.90;99.90;;;;;;5114196;27;20742;-69
2021/10/28 07:22:47;;;;;;;13.93;8.70;;;9.00;99.90;;;;;;5131745;27;20247;-69
2021/10/28 07:25:34;;;;;;;15.80;9.50;;;9.20;99.90;;;;;;5121000;27;20266;-69
2021/10/28 07:31:02;;;;;;;14.80;8.83;;;10.00;99.90;;;;;;5130173;27;20204;-69
2021/10/28 07:39:20;;;;;;;11.70;8.77;;;10.10;99.90;;;;;;5128171;27;20196;-69
2021/10/28 07:56:20;;;;;;;11.40;6.60;;;10.70;99.90;;;;;;5120677;27;20199;-69
2021/10/28 07:59:05;;;;;;;11.43;6.80;;;10.70;99.90;;;;;;5119340;27;20210;-69
2021/10/28 08:15:31;;;;;;;9.37;6.37;;;12.20;99.90;;;;;;5118808;27;20676;-68
2021/10/28 08:23:35;;;;;;;10.07;6.50;;;12.20;99.90;;;;;;5084973;28;20280;-68
2021/10/28 08:28:49;;;;;;;9.10;6.63;;;11.90;99.90;;;;;;5120475;27;20195;-69
2021/10/28 08:31:18;;;;;;;8.20;5.87;;;11.90;99.90;;;;;;5131534;27;20212;-69
2021/10/28 08:33:46;;;;;;;11.33;6.37;;;11.80;99.90;;;;;;5131545;28;20220;-69
2021/10/28 08:36:21;;;;;;;9.90;6.13;;;11.80;99.90;;;;;;5131717;28;20703;-69
2021/10/28 08:38:48;;;;;;;9.57;6.00;;;12.00;99.90;;;;;;5113170;28;20200;-69
2021/10/28 08:41:18;;;;;;;9.13;6.47;;;12.10;99.90;;;;;;5111377;28;20205;-69
2021/10/28 08:43:46;;;;;;;9.07;6.03;;;12.00;99.90;;;;;;5112074;28;20209;-69
2021/10/28 08:46:14;;;;;;;10.33;6.00;;;12.10;99.90;;;;;;5111659;28;20204;-69
2021/10/28 08:48:46;;;;;;;8.77;5.83;;;12.10;99.90;;;;;;5114944;27;20266;-69
2021/10/28 08:51:17;;;;;;;9.27;5.73;;;12.00;99.90;;;;;;5123380;28;20283;-78
2021/10/28 08:53:58;;;;;;;12.67;7.47;;;12.10;99.90;;;;;;5116633;27;20295;-78
2021/10/28 08:56:34;;;;;;;9.63;5.77;;;12.00;99.90;;;;;;5121056;27;20219;-78
2021/10/28 09:24:17;;;;;;;9.73;5.67;;;13.00;99.90;;;;;;5123726;28;20706;-75
2021/10/28 09:26:55;;;;;;;7.63;6.13;;;13.00;99.90;;;;;;5118535;28;20573;-75
2021/10/28 09:29:34;;;;;;;10.40;5.70;;;13.00;99.90;;;;;;5119272;27;20228;-75
2021/10/28 09:32:11;;;;;;;8.00;5.37;;;13.20;99.90;;;;;;5124540;28;20215;-75
2021/10/28 09:34:59;;;;;;;8.83;5.57;;;13.30;99.90;;;;;;5117491;27;20220;-75
2021/10/28 09:45:34;;;;;;;6.90;4.87;;;13.70;99.90;;;;;;5124597;27;20248;-75
2021/10/28 09:48:17;;;;;;;8.40;5.03;;;13.90;99.90;;;;;;5121174;27;20204;-75
2021/10/28 09:50:51;;;;;;;6.70;5.00;;;14.20;99.90;;;;;;5118959;27;20211;-76
2021/10/28 09:53:27;;;;;;;6.87;4.70;;;14.50;99.90;;;;;;5120817;27;20609;-75
2021/10/28 09:58:41;;;;;;;7.33;4.90;;;15.20;99.90;;;;;;5118764;27;20727;-75
2021/10/28 10:01:11;;;;;;;7.37;4.43;;;15.30;99.90;;;;;;5120203;27;20251;-76
2021/10/28 10:03:42;;;;;;;8.47;4.87;;;15.60;99.90;;;;;;5127191;27;20604;-75
2021/10/28 10:06:24;;;;;;;7.37;4.57;;;15.70;99.90;;;;;;5123650;27;20243;-75
2021/10/28 10:08:52;;;;;;;8.73;4.17;;;15.80;99.90;;;;;;5123156;27;20239;-74
2021/10/28 10:11:24;;;;;;;8.00;4.60;;;16.00;99.90;;;;;;5121334;27;20254;-75
2021/10/28 10:13:51;;;;;;;5.75;4.07;;;16.20;99.90;;;;;;5117698;27;20312;-75
2021/10/28 10:16:18;;;;;;;8.95;4.40;;;16.50;99.90;;;;;;5122027;27;20268;-75
2021/10/28 10:18:49;;;;;;;8.20;5.07;;;16.60;99.90;;;;;;5123092;27;20201;-75
2021/10/28 10:21:27;;;;;;;4.97;4.27;;;16.30;99.90;;;;;;5116908;27;20707;-75
2021/10/28 10:24:07;;;;;;;7.10;4.67;;;16.60;99.90;;;;;;5120872;27;20204;-75
2021/10/28 10:27:53;;;;;;;6.35;4.05;;;16.50;99.90;;;;;;5123895;27;20203;-75
2021/10/28 11:30:17;;;;;;;2.30;2.10;;;18.80;98.40;;;;;;5127693;27;20268;-75
2021/10/28 12:13:54;;;;;;;2.40;1.80;;;19.80;93.90;;;;;;5124877;27;20535;-78
2021/10/28 12:44:30;;;;;;;1.80;1.70;;;24.50;67.30;;;;;;5128075;28;20204;-78
2021/10/28 13:04:06;;;;;;;2.05;1.88;;;23.30;63.30;;;;;;5119037;27;20546;-78
2021/10/28 13:51:21;;;;;;;3.00;2.70;;;18.70;87.50;;;;;;5116538;27;20213;-77
2021/10/28 13:54:04;;;;;;;2.97;2.42;;;18.70;89.20;;;;;;5120840;27;20545;-77
2021/10/28 13:56:55;;;;;;;4.28;2.90;;;18.70;90.10;;;;;;5129195;27;20326;-77
2021/10/28 14:19:20;;;;;;;4.93;2.65;;;17.80;93.30;;;;;;5113879;28;20276;-70
2021/10/28 14:22:27;;;;;;;3.33;2.53;;;17.80;91.90;;;;;;5114831;28;20637;-70
2021/10/28 14:37:00;;;;;;;3.75;2.33;;;17.10;94.40;;;;;;5072634;27;20664;-70
2021/10/28 15:28:59;;;;;;;3.88;2.80;;;15.50;99.90;;;;;;5089680;27;20562;-78
2021/10/28 15:31:59;;;;;;;5.22;3.10;;;15.20;99.90;;;;;;5150324;27;20247;-79
2021/10/28 15:34:37;;;;;;;4.07;3.20;;;15.30;99.90;;;;;;5153082;27;20199;-79
2021/10/28 15:37:09;;;;;;;6.10;2.67;;;15.30;99.90;;;;;;5159577;27;20647;-78
2021/10/28 15:39:40;;;;;;;3.63;2.73;;;15.20;99.90;;;;;;5153466;27;20199;-78
2021/10/28 16:23:37;;;;;;;5.27;2.80;;;13.70;99.90;;;;;;5154231;27;20625;-76
2021/10/28 16:26:04;;;;;;;7.23;3.33;;;13.60;99.90;;;;;;5151390;27;20242;-76
2021/10/28 16:28:32;;;;;;;4.93;2.80;;;13.50;99.90;;;;;;5154664;27;20196;-78
2021/10/28 16:30:59;;;;;;;7.97;3.20;;;13.40;99.90;;;;;;5152771;27;20248;-78
2021/10/28 16:33:27;;;;;;;6.47;3.50;;;13.30;99.90;;;;;;5149585;27;20203;-78
2021/10/28 16:35:54;;;;;;;4.80;3.80;;;13.30;99.90;;;;;;5151630;27;20212;-76
2021/10/28 16:38:23;;;;;;;4.87;3.37;;;13.10;99.90;;;;;;5153156;27;20278;-71
2021/10/28 16:40:51;;;;;;;7.40;4.00;;;12.90;99.90;;;;;;5142032;27;20208;-71
2021/10/28 16:43:18;;;;;;;6.90;3.50;;;12.70;99.90;;;;;;5134902;27;20621;-71
2021/10/28 16:45:47;;;;;;;3.37;3.07;;;12.70;99.90;;;;;;5149195;27;20355;-71
2021/10/28 16:48:14;;;;;;;7.37;4.60;;;12.50;99.90;;;;;;5142428;27;20204;-70
2021/10/28 16:50:42;;;;;;;5.13;4.43;;;12.40;99.90;;;;;;5140365;27;20244;-70
2021/10/28 16:53:09;;;;;;;6.27;3.77;;;12.30;99.90;;;;;;5144931;27;20200;-70
2021/10/28 16:55:36;;;;;;;6.30;4.10;;;12.30;99.90;;;;;;5154397;27;20208;-70
2021/10/28 16:58:04;;;;;;;6.57;4.80;;;12.20;99.90;;;;;;5143754;27;20199;-70
2021/10/28 17:00:31;;;;;;;6.70;4.20;;;12.20;99.90;;;;;;5154141;27;20235;-70
2021/10/28 17:02:58;;;;;;;4.37;3.40;;;12.30;99.90;;;;;;5152257;27;20262;-71
2021/10/28 17:05:25;;;;;;;4.23;3.07;;;12.30;99.90;;;;;;5146473;27;20193;-77
2021/10/28 17:07:53;;;;;;;5.10;3.60;;;12.20;99.90;;;;;;5152777;27;20279;-77
2021/10/28 17:10:20;;;;;;;5.17;3.90;;;12.10;99.90;;;;;;5148771;27;20207;-77
2021/10/28 17:12:47;;;;;;;4.87;4.23;;;12.00;99.90;;;;;;5141332;27;20228;-71
2021/10/28 17:15:16;;;;;;;6.00;4.60;;;11.90;99.90;;;;;;5140952;27;20203;-77
2021/10/28 17:17:44;;;;;;;11.90;6.33;;;11.70;99.90;;;;;;5154826;27;20565;-77
2021/10/28 17:20:12;;;;;;;9.27;4.90;;;11.70;99.90;;;;;;5154428;27;20291;-77
2021/10/28 17:22:40;;;;;;;6.97;5.13;;;11.70;99.90;;;;;;5145124;27;20205;-77
2021/10/28 17:25:10;;;;;;;13.77;8.70;;;11.60;99.90;;;;;;5147108;27;20231;-77
2021/10/28 17:27:37;;;;;;;10.07;6.70;;;11.50;99.90;;;;;;5133708;27;20243;-71
2021/10/28 17:30:07;;;;;;;5.50;4.60;;;11.40;99.90;;;;;;5133243;27;20208;-70
2021/10/28 17:32:39;;;;;;;7.60;5.30;;;11.90;99.90;;;;;;5154359;27;20196;-70
2021/10/28 17:35:07;;;;;;;8.33;5.33;;;11.90;99.90;;;;;;5140406;27;20573;-75
2021/10/28 17:37:34;;;;;;;8.60;4.33;;;11.50;99.90;;;;;;5137976;27;20207;-75
2021/10/28 17:40:01;;;;;;;14.27;4.90;;;11.40;99.90;;;;;;5144084;27;20231;-75
2021/10/28 17:42:28;;;;;;;6.27;4.83;;;11.30;99.90;;;;;;5139184;27;20264;-75
2021/10/28 17:44:57;;;;;;;7.00;5.07;;;11.30;99.90;;;;;;5142546;27;21124;-77
2021/10/28 17:47:24;;;;;;;5.80;4.87;;;11.30;99.90;;;;;;5137470;27;20310;-77
2021/10/28 17:49:53;;;;;;;8.83;5.40;;;11.20;99.90;;;;;;5148936;27;20260;-78
2021/10/28 17:52:20;;;;;;;8.67;5.60;;;11.20;99.90;;;;;;5143201;27;20232;-77
2021/10/28 17:54:47;;;;;;;6.33;4.00;;;11.00;99.90;;;;;;5145875;27;20236;-78
2021/10/28 17:57:15;;;;;;;7.03;4.40;;;11.10;99.90;;;;;;5145735;27;20660;-70
2021/10/28 17:59:44;;;;;;;6.60;4.27;;;11.00;99.90;;;;;;5142215;27;20207;-70
2021/10/28 18:02:12;;;;;;;7.37;4.70;;;11.10;99.90;;;;;;5139268;27;20682;-70
2021/10/28 18:04:42;;;;;;;7.03;4.40;;;11.20;99.90;;;;;;5146510;27;20649;-70
2021/10/28 18:07:11;;;;;;;5.17;3.83;;;11.40;99.90;;;;;;5141228;27;20256;-70
2021/10/28 18:09:38;;;;;;;4.67;3.77;;;11.80;99.90;;;;;;5148448;27;20554;-70
2021/10/28 18:12:06;;;;;;;6.07;3.50;;;12.10;99.90;;;;;;5147160;27;20202;-69
2021/10/28 18:14:33;;;;;;;5.07;3.80;;;12.20;99.90;;;;;;5142267;27;20652;-70
2021/10/28 18:17:00;;;;;;;4.93;3.83;;;12.10;99.90;;;;;;5146879;27;20244;-70
2021/10/28 18:19:27;;;;;;;5.83;4.03;;;12.20;99.90;;;;;;5140148;27;20222;-70
2021/10/28 18:21:57;;;;;;;5.47;3.60;;;12.40;99.90;;;;;;5140538;27;20199;-71
2021/10/28 18:24:27;;;;;;;5.67;4.00;;;12.50;99.90;;;;;;5141935;27;20195;-71
2021/10/28 18:26:55;;;;;;;5.73;3.97;;;12.50;99.90;;;;;;5137438;27;20753;-71
2021/10/28 18:29:22;;;;;;;6.47;3.70;;;12.60;99.90;;;;;;5134735;27;20290;-71
2021/10/28 18:31:51;;;;;;;6.97;4.10;;;12.60;99.90;;;;;;5139403;27;20203;-71
2021/10/28 18:34:21;;;;;;;5.17;4.13;;;12.60;99.90;;;;;;5137845;27;20200;-71
2021/10/28 18:36:51;;;;;;;5.37;3.77;;;12.50;99.90;;;;;;5146113;27;20200;-71
2021/10/28 18:39:20;;;;;;;5.17;4.27;;;12.80;99.90;;;;;;5146886;27;20246;-71
2021/10/28 18:41:50;;;;;;;7.33;4.20;;;12.80;99.90;;;;;;5139579;27;20534;-71
2021/10/28 18:44:18;;;;;;;7.10;5.17;;;12.70;99.90;;;;;;5142446;27;20567;-71
2021/10/28 18:46:45;;;;;;;6.27;4.73;;;12.70;99.90;;;;;;5136921;27;20277;-75
2021/10/28 18:49:13;;;;;;;6.90;4.60;;;12.70;99.90;;;;;;5145363;27;20203;-75
2021/10/28 18:51:43;;;;;;;7.63;5.00;;;12.70;99.90;;;;;;5140530;27;20235;-75
2021/10/28 18:54:11;;;;;;;7.47;5.27;;;12.70;99.90;;;;;;5143334;27;20248;-75
2021/10/28 18:56:38;;;;;;;9.23;5.37;;;12.80;99.90;;;;;;5139685;27;20195;-71
2021/10/28 18:59:08;;;;;;;7.73;5.70;;;12.60;99.90;;;;;;5144636;27;20211;-71
2021/10/28 19:01:37;;;;;;;9.27;5.97;;;12.70;99.90;;;;;;5140128;27;20195;-71
2021/10/28 19:04:04;;;;;;;8.73;5.67;;;12.60;99.90;;;;;;5141877;27;20204;-71
2021/10/28 19:06:34;;;;;;;9.00;5.90;;;12.50;99.90;;;;;;5141025;27;20200;-70
2021/10/28 19:09:01;;;;;;;10.47;6.60;;;12.50;99.90;;;;;;5146841;27;20570;-70
2021/10/28 19:11:28;;;;;;;8.37;5.97;;;12.60;99.90;;;;;;5138802;27;20201;-71
2021/10/28 19:13:56;;;;;;;9.27;6.50;;;12.50;99.90;;;;;;5143759;27;20268;-71
2021/10/28 19:16:27;;;;;;;9.93;6.83;;;12.50;99.90;;;;;;5145072;27;20685;-71
2021/10/28 19:18:54;;;;;;;10.10;6.30;;;12.40;99.90;;;;;;5150132;27;20211;-79
2021/10/28 19:21:21;;;;;;;11.40;6.90;;;12.30;99.90;;;;;;5141139;27;20197;-78
2021/10/28 19:23:49;;;;;;;10.67;7.67;;;12.20;99.90;;;;;;5144825;27;20204;-78
2021/10/28 19:26:16;;;;;;;12.60;8.53;;;12.10;99.90;;;;;;5145778;27;20212;-78
2021/10/28 19:28:44;;;;;;;12.63;8.30;;;12.20;99.90;;;;;;5144965;27;20987;-77
2021/10/28 19:31:18;;;;;;;13.20;8.10;;;12.10;99.90;;;;;;5143302;27;20203;-76
2021/10/28 19:33:48;;;;;;;13.33;9.13;;;12.10;99.90;;;;;;5145442;27;20719;-76
2021/10/28 19:36:20;;;;;;;15.03;9.47;;;11.90;99.90;;;;;;5140189;27;20207;-76
2021/10/28 19:41:51;;;;;;;12.80;7.80;;;11.90;99.90;;;;;;5139595;27;20660;-77
2021/10/28 19:47:04;;;;;;;13.70;9.50;;;11.80;99.90;;;;;;5137610;27;20303;-76
2021/10/28 19:49:33;;;;;;;14.50;9.97;;;11.70;99.90;;;;;;5139832;27;20203;-75
2021/10/28 19:52:06;;;;;;;16.50;10.73;;;11.70;99.90;;;;;;5145941;27;20240;-75
2021/10/28 19:54:33;;;;;;;18.00;10.90;;;11.70;99.90;;;;;;5145737;27;20279;-75
2021/10/28 19:57:01;;;;;;;18.60;10.67;;;11.60;99.90;;;;;;5146151;27;20211;-71
2021/10/28 19:59:32;;;;;;;18.13;10.67;;;11.40;99.90;;;;;;5144291;27;20215;-71
2021/10/28 20:02:06;;;;;;;18.73;11.17;;;11.30;99.90;;;;;;5144244;27;20304;-71
2021/10/28 20:04:52;;;;;;;16.37;11.63;;;11.30;99.90;;;;;;5138485;27;20268;-71
2021/10/28 20:07:24;;;;;;;17.90;11.43;;;11.20;99.90;;;;;;5142335;27;20553;-71
2021/10/28 20:21:00;;;;;;;19.13;12.57;;;10.80;99.90;;;;;;5143351;27;20571;-71
2021/10/28 20:23:27;;;;;;;20.57;13.33;;;10.70;99.90;;;;;;5148584;27;20245;-71
2021/10/28 20:25:53;;;;;;;19.47;12.93;;;10.70;99.90;;;;;;5150905;27;20260;-71
2021/10/28 20:28:21;;;;;;;21.27;12.30;;;10.60;99.90;;;;;;5151522;27;20267;-71
2021/10/28 20:30:55;;;;;;;20.40;12.93;;;10.50;99.90;;;;;;5155229;27;20200;-71
2021/10/28 20:33:23;;;;;;;20.47;12.60;;;10.40;99.90;;;;;;5124163;27;20208;-71
2021/10/28 20:36:10;;;;;;;19.70;12.80;;;10.30;99.90;;;;;;5139516;27;20204;-71
2021/10/28 20:38:39;;;;;;;21.17;14.47;;;10.30;99.90;;;;;;5116304;27;20238;-71
2021/10/28 20:41:06;;;;;;;23.53;14.67;;;10.20;99.90;;;;;;5139704;27;20252;-71
2021/10/28 20:43:36;;;;;;;21.10;13.60;;;10.30;99.90;;;;;;5155016;27;20584;-71
2021/10/28 20:46:04;;;;;;;21.33;13.77;;;10.30;99.90;;;;;;5145524;27;20207;-71
2021/10/28 20:48:31;;;;;;;20.43;13.97;;;10.20;99.90;;;;;;5139756;27;20220;-71
2021/10/28 20:50:58;;;;;;;23.00;14.17;;;10.10;99.90;;;;;;5143546;27;20338;-71
2021/10/28 20:53:25;;;;;;;21.43;13.13;;;9.80;99.90;;;;;;5145284;27;20252;-71
2021/10/28 20:55:53;;;;;;;21.53;14.43;;;9.80;99.90;;;;;;5139312;27;20199;-71
2021/10/28 20:58:20;;;;;;;21.17;14.23;;;9.80;99.90;;;;;;5146465;27;20248;-70
2021/10/28 21:00:47;;;;;;;23.10;14.77;;;9.80;99.90;;;;;;5141726;27;20235;-71